Time;durP1;ratioP1;P1;durP2;ratioP2;P2;SDS_P1;SDS_P2;PMS_P1;PMS_P2;Temp;Humidity;BMP_temperature;BMP_pressure;BME280_temperature;BME280_humidity;BME280_pressure;Samples;Min_cycle;Max_cycle;Signal;HPM_P1;HPM_P2
2022/11/04 00:01:16;;;;;;;;;;;11.50;99.90;;;;;;5087629;28;19932;-66
2022/11/04 00:03:41;;;;;;;;;;;11.50;99.90;;;;;;5088112;28;19924;-65
2022/11/04 00:06:07;;;;;;;;;;;11.80;99.90;;;;;;5071401;28;20024;-66
2022/11/04 00:08:33;;;;;;;;;;;11.50;99.90;;;;;;5105061;28;19931;-65
2022/11/04 00:13:43;;;;;;;;;;;11.60;99.90;;;;;;5072417;28;19924;-65
2022/11/04 00:18:53;;;;;;;;;;;11.50;99.90;;;;;;5071541;28;20006;-65
2022/11/04 00:29:32;;;;;;;;;;;11.50;99.90;;;;;;5072058;28;19924;-66
2022/11/04 00:34:41;;;;;;;;;;;11.50;99.90;;;;;;5099626;28;20421;-65
2022/11/04 00:37:07;;;;;;;;;;;11.50;99.90;;;;;;5087541;28;19925;-66
2022/11/04 00:39:32;;;;;;;;;;;11.50;99.90;;;;;;5070416;28;19925;-66
2022/11/04 00:41:58;;;;;;;;;;;11.50;99.90;;;;;;5071142;28;20287;-65
2022/11/04 00:44:24;;;;;;;;;;;11.50;99.90;;;;;;5104161;28;20402;-66
2022/11/04 00:46:49;;;;;;;;;;;11.40;99.90;;;;;;5087782;28;19971;-65
2022/11/04 00:49:15;;;;;;;;;;;11.40;99.90;;;;;;5087841;28;20019;-67
2022/11/04 00:51:40;;;;;;;;;;;11.30;99.90;;;;;;5070363;28;19924;-66
2022/11/04 00:54:06;;;;;;;;;;;11.30;99.90;;;;;;5087907;28;20038;-66
2022/11/04 00:56:31;;;;;;;;;;;11.30;99.90;;;;;;5087396;28;20398;-66
2022/11/04 00:59:00;;;;;;;;;;;11.30;99.90;;;;;;5087857;28;19931;-65
2022/11/04 01:01:26;;;;;;;;;;;11.20;99.90;;;;;;5104250;28;19924;-65
2022/11/04 01:03:52;;;;;;;;;;;11.10;99.90;;;;;;5071334;28;19978;-65
2022/11/04 01:06:18;;;;;;;;;;;11.10;99.90;;;;;;5070576;28;19924;-67
2022/11/04 01:08:44;;;;;;;;;;;11.10;99.90;;;;;;5071955;28;19924;-65
2022/11/04 01:11:10;;;;;;;;;;;11.00;99.90;;;;;;5071088;28;19928;-66
2022/11/04 01:13:36;;;;;;;;;;;11.00;99.90;;;;;;5071432;28;19970;-65
2022/11/04 01:16:03;;;;;;;;;;;10.90;99.90;;;;;;5070969;28;19924;-66
2022/11/04 01:18:29;;;;;;;;;;;10.90;99.90;;;;;;5070597;28;19974;-66
2022/11/04 01:20:54;;;;;;;;;;;10.80;99.90;;;;;;5071524;28;19924;-66
2022/11/04 01:23:20;;;;;;;;;;;10.90;99.90;;;;;;5104639;28;19969;-68
2022/11/04 01:25:45;;;;;;;;;;;10.80;99.90;;;;;;5071332;28;19924;-66
2022/11/04 01:28:11;;;;;;;;;;;10.80;99.90;;;;;;5087495;28;19932;-66
2022/11/04 01:30:37;;;;;;;;;;;10.80;99.90;;;;;;5087384;28;19939;-66
2022/11/04 01:33:02;;;;;;;;;;;10.80;99.90;;;;;;5087561;28;20015;-66
2022/11/04 01:35:28;;;;;;;;;;;10.80;99.90;;;;;;5069603;28;19931;-66
2022/11/04 01:37:54;;;;;;;;;;;10.80;99.90;;;;;;5070375;28;19986;-64
2022/11/04 01:40:19;;;;;;;;;;;10.80;99.90;;;;;;5070386;28;19928;-65
2022/11/04 01:42:45;;;;;;;;;;;10.80;99.90;;;;;;5070230;28;19960;-67
2022/11/04 01:45:13;;;;;;;;;;;10.70;99.90;;;;;;5070378;28;19971;-65
2022/11/04 01:47:43;;;;;;;;;;;10.70;99.90;;;;;;5103955;28;19924;-67
2022/11/04 01:50:11;;;;;;;;;;;10.80;99.90;;;;;;5072971;28;20371;-65
2022/11/04 01:52:40;;;;;;;;;;;10.70;99.90;;;;;;5074898;28;20296;-65
2022/11/04 01:55:10;;;;;;;;;;;10.80;99.90;;;;;;5090905;28;19931;-67
2022/11/04 01:57:41;;;;;;;;;;;10.70;99.90;;;;;;5090605;28;19940;-66
2022/11/04 02:00:07;;;;;;;;;;;10.70;99.90;;;;;;5074222;28;19924;-66
2022/11/04 02:02:36;;;;;;;;;;;10.80;99.90;;;;;;5074614;28;19924;-66
2022/11/04 02:05:01;;;;;;;;;;;10.70;99.90;;;;;;5090713;28;20011;-65
2022/11/04 02:07:27;;;;;;;;;;;10.70;99.90;;;;;;5073485;28;20025;-68
2022/11/04 02:09:53;;;;;;;;;;;10.70;99.90;;;;;;5073863;28;20260;-65
2022/11/04 02:15:03;;;;;;;;;;;10.70;99.90;;;;;;5073847;28;19925;-66
2022/11/04 02:17:29;;;;;;;;;;;10.70;99.90;;;;;;5074298;28;19925;-67
2022/11/04 02:19:57;;;;;;;;;;;10.70;99.90;;;;;;5073336;28;20372;-66
2022/11/04 02:22:29;;;;;;;;;;;10.70;99.90;;;;;;5073581;28;20287;-66
2022/11/04 02:25:23;;;;;;;;;;;10.70;99.90;;;;;;5072715;28;19928;-66
2022/11/04 02:28:00;;;;;;;;;;;10.70;99.90;;;;;;5106707;28;19925;-67
2022/11/04 02:30:29;;;;;;;;;;;10.70;99.90;;;;;;5107062;28;20403;-66
2022/11/04 02:33:02;;;;;;;;;;;10.80;99.90;;;;;;5073308;28;19924;-66
2022/11/04 02:35:46;;;;;;;;;;;10.70;99.90;;;;;;5107324;28;19977;-67
2022/11/04 02:38:22;;;;;;;;;;;10.70;99.90;;;;;;5073213;28;19931;-67
2022/11/04 02:41:00;;;;;;;;;;;10.70;99.90;;;;;;5089209;28;19925;-66
2022/11/04 02:43:30;;;;;;;;;;;10.70;99.90;;;;;;5073359;28;19970;-66
2022/11/04 02:46:03;;;;;;;;;;;10.70;99.90;;;;;;5072607;28;19989;-66
2022/11/04 02:48:37;;;;;;;;;;;10.60;99.90;;;;;;5073125;28;19985;-66
2022/11/04 02:51:09;;;;;;;;;;;10.60;99.90;;;;;;5089705;28;19950;-67
2022/11/04 02:53:39;;;;;;;;;;;10.60;99.90;;;;;;5072671;28;20058;-67
2022/11/04 02:56:05;;;;;;;;;;;10.60;99.90;;;;;;5073977;28;19924;-66
2022/11/04 02:58:34;;;;;;;;;;;10.60;99.90;;;;;;5072862;28;19931;-66
2022/11/04 03:01:00;;;;;;;;;;;10.50;99.90;;;;;;5072753;28;19939;-65
2022/11/04 03:03:31;;;;;;;;;;;10.50;99.90;;;;;;5105921;28;19924;-66
2022/11/04 03:05:58;;;;;;;;;;;10.50;99.90;;;;;;5073482;28;19924;-66
2022/11/04 03:08:32;;;;;;;;;;;10.50;99.90;;;;;;5072328;28;20372;-66
2022/11/04 03:11:01;;;;;;;;;;;10.50;99.90;;;;;;5072234;28;20295;-66
2022/11/04 03:13:36;;;;;;;;;;;10.40;99.90;;;;;;5073566;28;19925;-65
2022/11/04 03:16:05;;;;;;;;;;;10.40;99.90;;;;;;5089081;28;20023;-66
2022/11/04 03:18:49;;;;;;;;;;;10.50;99.90;;;;;;5106494;28;19929;-66
2022/11/04 03:21:16;;;;;;;;;;;10.50;99.90;;;;;;5073144;28;20490;-65
2022/11/04 03:23:42;;;;;;;;;;;10.40;99.90;;;;;;5071847;28;20256;-66
2022/11/04 03:26:13;;;;;;;;;;;10.50;99.90;;;;;;5106107;28;19925;-66
2022/11/04 03:28:42;;;;;;;;;;;10.50;99.90;;;;;;5072605;28;19924;-68
2022/11/04 03:31:11;;;;;;;;;;;10.50;99.90;;;;;;5073148;28;19924;-65
2022/11/04 03:33:47;;;;;;;;;;;10.50;99.90;;;;;;5073347;28;19948;-65
2022/11/04 03:36:13;;;;;;;;;;;10.50;99.90;;;;;;5072353;28;19931;-65
2022/11/04 03:38:39;;;;;;;;;;;10.50;99.90;;;;;;5073103;28;19924;-68
2022/11/04 03:41:08;;;;;;;;;;;10.50;99.90;;;;;;5073050;28;19932;-66
2022/11/04 03:43:34;;;;;;;;;;;10.60;99.90;;;;;;5088816;28;19925;-65
2022/11/04 03:46:00;;;;;;;;;;;10.50;99.90;;;;;;5105097;28;19935;-66
2022/11/04 03:48:25;;;;;;;;;;;10.50;99.90;;;;;;5088671;28;19924;-66
2022/11/04 03:50:51;;;;;;;;;;;10.60;99.90;;;;;;5071078;28;19942;-66
2022/11/04 03:53:24;;;;;;;;;;;10.80;99.90;;;;;;5088210;28;19925;-66
2022/11/04 03:56:05;;;;;;;;;;;10.50;99.90;;;;;;5072256;28;19928;-66
2022/11/04 03:58:43;;;;;;;;;;;10.60;99.90;;;;;;5071822;28;19928;-66
2022/11/04 04:01:09;;;;;;;;;;;10.50;99.90;;;;;;5088262;28;20011;-66
2022/11/04 04:03:39;;;;;;;;;;;10.50;99.90;;;;;;5104986;28;19924;-66
2022/11/04 04:06:10;;;;;;;;;;;10.50;99.90;;;;;;5087963;28;19924;-67
2022/11/04 04:08:45;;;;;;;;;;;10.50;99.90;;;;;;5105283;28;19967;-66
2022/11/04 04:11:29;;;;;;;;;;;10.50;99.90;;;;;;5105234;28;19924;-66
2022/11/04 04:13:55;;;;;;;;;;;10.50;99.90;;;;;;5070605;28;19924;-66
2022/11/04 04:16:25;;;;;;;;;;;10.50;99.90;;;;;;5071445;28;19925;-65
2022/11/04 04:18:56;;;;;;;;;;;10.50;99.90;;;;;;5070940;28;19924;-66
2022/11/04 04:21:26;;;;;;;;;;;10.50;99.90;;;;;;5071161;28;19931;-66
2022/11/04 04:29:23;;;;;;;;;;;10.30;99.90;;;;;;5071195;28;19925;-66
2022/11/04 04:31:48;;;;;;;;;;;10.30;99.90;;;;;;5071984;28;20031;-66
2022/11/04 04:34:15;;;;;;;;;;;10.30;99.90;;;;;;5072199;28;19968;-66
2022/11/04 04:36:50;;;;;;;;;;;10.20;99.90;;;;;;5105215;28;19978;-65
2022/11/04 04:45:03;;;;;;;;;;;10.20;99.90;;;;;;5070373;28;19925;-66
2022/11/04 04:47:34;;;;;;;;;;;10.20;99.90;;;;;;5088174;28;20058;-66
2022/11/04 04:50:00;;;;;;;;;;;10.20;99.90;;;;;;5071640;28;20339;-66
2022/11/04 04:52:28;;;;;;;;;;;10.20;99.90;;;;;;5105074;28;19924;-68
2022/11/04 04:54:54;;;;;;;;;;;10.20;99.90;;;;;;5071613;28;19978;-66
2022/11/04 04:57:21;;;;;;;;;;;10.30;99.90;;;;;;5070202;28;20401;-65
2022/11/04 04:59:47;;;;;;;;;;;10.20;99.90;;;;;;5087936;28;20029;-66
2022/11/04 05:02:13;;;;;;;;;;;10.20;99.90;;;;;;5087704;28;19925;-66
2022/11/04 05:04:38;;;;;;;;;;;10.20;99.90;;;;;;5104124;28;19979;-66
2022/11/04 05:07:05;;;;;;;;;;;10.20;99.90;;;;;;5087531;28;19924;-66
2022/11/04 05:09:31;;;;;;;;;;;10.10;99.90;;;;;;5072059;28;19925;-66
2022/11/04 05:11:56;;;;;;;;;;;10.10;99.90;;;;;;5087438;28;20019;-66
2022/11/04 05:14:22;;;;;;;;;;;10.00;99.90;;;;;;5072063;28;20023;-66
2022/11/04 05:16:47;;;;;;;;;;;10.10;99.90;;;;;;5071732;28;19929;-66
2022/11/04 05:19:13;;;;;;;;;;;10.10;99.90;;;;;;5071668;28;19986;-66
2022/11/04 05:21:38;;;;;;;;;;;10.10;99.90;;;;;;5071838;28;19971;-66
2022/11/04 05:24:04;;;;;;;;;;;10.00;99.90;;;;;;5087928;28;19977;-66
2022/11/04 05:26:30;;;;;;;;;;;10.00;99.90;;;;;;5073895;28;19979;-66
2022/11/04 05:28:55;;;;;;;;;;;10.00;99.90;;;;;;5107951;28;20479;-68
2022/11/04 05:31:21;;;;;;;;;;;10.10;99.90;;;;;;5074822;28;19924;-66
2022/11/04 05:33:46;;;;;;;;;;;10.00;99.90;;;;;;5075606;28;19969;-66
2022/11/04 05:36:13;;;;;;;;;;;10.00;99.90;;;;;;5074124;28;20279;-66
2022/11/04 05:38:39;;;;;;;;;;;10.00;99.90;;;;;;5075139;28;19925;-66
2022/11/04 05:41:05;;;;;;;;;;;10.00;99.90;;;;;;5091010;28;19931;-66
2022/11/04 05:43:31;;;;;;;;;;;10.00;99.90;;;;;;5074161;28;19932;-66
2022/11/04 05:45:57;;;;;;;;;;;10.00;99.90;;;;;;5107590;28;19928;-68
2022/11/04 05:48:23;;;;;;;;;;;10.00;99.90;;;;;;5075280;28;20338;-66
2022/11/04 05:50:48;;;;;;;;;;;10.00;99.90;;;;;;5074752;28;20382;-66
2022/11/04 05:53:14;;;;;;;;;;;10.00;99.90;;;;;;5074884;28;19924;-66
2022/11/04 05:55:39;;;;;;;;;;;9.90;99.90;;;;;;5073953;28;19928;-66
2022/11/04 05:58:05;;;;;;;;;;;9.90;99.90;;;;;;5073566;28;19964;-66
2022/11/04 06:00:30;;;;;;;;;;;9.90;99.90;;;;;;5075005;28;20475;-66
2022/11/04 06:02:56;;;;;;;;;;;9.90;99.90;;;;;;5073825;28;20018;-66
2022/11/04 06:05:22;;;;;;;;;;;9.90;99.90;;;;;;5107349;28;19924;-67
2022/11/04 06:07:47;;;;;;;;;;;9.80;99.90;;;;;;5074818;28;19925;-67
2022/11/04 06:10:13;;;;;;;;;;;9.80;99.90;;;;;;5090272;28;19925;-67
2022/11/04 06:12:38;;;;;;;;;;;9.80;99.90;;;;;;5090505;28;19984;-66
2022/11/04 06:15:04;;;;;;;;;;;9.80;99.90;;;;;;5073393;28;19931;-67
2022/11/04 06:17:30;;;;;;;;;;;9.80;99.90;;;;;;5107704;28;20261;-67
2022/11/04 06:19:55;;;;;;;;;;;9.80;99.90;;;;;;5107443;28;19925;-67
2022/11/04 06:22:21;;;;;;;;;;;9.80;99.90;;;;;;5074154;28;19977;-67
2022/11/04 06:24:47;;;;;;;;;;;9.80;99.90;;;;;;5107263;28;19974;-67
2022/11/04 06:27:12;;;;;;;;;;;9.90;99.90;;;;;;5106613;28;20261;-67
2022/11/04 06:29:41;;;;;;;;;;;9.80;99.90;;;;;;5073918;28;19978;-66
2022/11/04 06:32:14;;;;;;;;;;;9.90;99.90;;;;;;5073674;28;20338;-67
2022/11/04 06:34:40;;;;;;;;;;;9.80;99.90;;;;;;5073433;28;19929;-67
2022/11/04 06:37:05;;;;;;;;;;;9.80;99.90;;;;;;5105332;28;19947;-66
2022/11/04 06:39:31;;;;;;;;;;;9.80;99.90;;;;;;5106660;28;19974;-66
2022/11/04 06:41:57;;;;;;;;;;;9.70;99.90;;;;;;5073133;28;20000;-66
2022/11/04 06:44:22;;;;;;;;;;;9.70;99.90;;;;;;5073827;28;19932;-66
2022/11/04 06:46:48;;;;;;;;;;;9.70;99.90;;;;;;5106950;28;19924;-66
2022/11/04 06:49:16;;;;;;;;;;;9.60;99.90;;;;;;5072200;28;19924;-67
2022/11/04 06:51:43;;;;;;;;;;;9.60;99.90;;;;;;5106726;28;19924;-69
2022/11/04 06:54:09;;;;;;;;;;;9.60;99.90;;;;;;5072066;28;19924;-68
2022/11/04 06:56:35;;;;;;;;;;;9.50;99.90;;;;;;5072590;28;19958;-67
2022/11/04 06:59:02;;;;;;;;;;;9.60;99.90;;;;;;5089609;28;19924;-67
2022/11/04 07:01:28;;;;;;;;;;;9.60;99.90;;;;;;5105634;28;20386;-68
2022/11/04 07:03:55;;;;;;;;;;;9.60;99.90;;;;;;5088961;28;20359;-67
2022/11/04 07:06:21;;;;;;;;;;;9.60;99.90;;;;;;5071584;28;20333;-67
2022/11/04 07:08:47;;;;;;;;;;;9.60;99.90;;;;;;5089318;28;19929;-67
2022/11/04 07:11:13;;;;;;;;;;;9.60;99.90;;;;;;5089288;28;19924;-66
2022/11/04 07:13:39;;;;;;;;;;;9.70;99.90;;;;;;5089205;28;20079;-65
2022/11/04 07:16:06;;;;;;;;;;;9.60;99.90;;;;;;5106393;28;19925;-65
2022/11/04 07:18:31;;;;;;;;;;;9.70;99.90;;;;;;5072983;28;19931;-65
2022/11/04 07:20:57;;;;;;;;;;;9.70;99.90;;;;;;5071751;28;19924;-65
2022/11/04 07:23:23;;;;;;;;;;;9.70;99.90;;;;;;5072871;28;19925;-66
2022/11/04 07:25:49;;;;;;;;;;;10.00;99.90;;;;;;5088066;28;19928;-66
2022/11/04 07:28:15;;;;;;;;;;;9.80;99.90;;;;;;5072582;28;20303;-65
2022/11/04 07:30:40;;;;;;;;;;;10.20;99.90;;;;;;5105355;28;19924;-65
2022/11/04 07:33:07;;;;;;;;;;;10.90;99.90;;;;;;5072868;28;20325;-65
2022/11/04 07:35:32;;;;;;;;;;;11.50;99.90;;;;;;5072558;28;20507;-65
2022/11/04 07:37:58;;;;;;;;;;;11.60;99.90;;;;;;5072794;28;19932;-65
2022/11/04 07:40:24;;;;;;;;;;;11.50;99.90;;;;;;5105378;28;19932;-65
2022/11/04 07:42:49;;;;;;;;;;;11.30;99.90;;;;;;5071530;28;19936;-66
2022/11/04 07:45:15;;;;;;;;;;;11.00;99.90;;;;;;5071779;28;19920;-65
2022/11/04 07:47:41;;;;;;;;;;;10.90;99.90;;;;;;5072126;28;19925;-65
2022/11/04 07:50:06;;;;;;;;;;;10.80;99.90;;;;;;5105242;28;19928;-66
2022/11/04 07:52:32;;;;;;;;;;;10.60;99.90;;;;;;5104370;28;19925;-66
2022/11/04 07:54:58;;;;;;;;;;;10.50;99.90;;;;;;5071913;28;19953;-66
2022/11/04 07:57:23;;;;;;;;;;;10.40;99.90;;;;;;5070726;28;20281;-66
2022/11/04 07:59:49;;;;;;;;;;;10.30;99.90;;;;;;5070834;28;19983;-65
2022/11/04 08:02:14;;;;;;;;;;;10.40;99.90;;;;;;5105169;28;20249;-68
2022/11/04 08:04:40;;;;;;;;;;;10.40;99.90;;;;;;5069681;28;19925;-65
2022/11/04 08:07:09;;;;;;;;;;;10.40;99.90;;;;;;5072429;28;20359;-66
2022/11/04 08:09:38;;;;;;;;;;;10.40;99.90;;;;;;5087506;28;19924;-66
2022/11/04 08:12:04;;;;;;;;;;;10.50;99.90;;;;;;5088137;28;19973;-66
2022/11/04 08:14:29;;;;;;;;;;;10.40;99.90;;;;;;5087287;28;19932;-65
2022/11/04 08:16:55;;;;;;;;;;;10.40;99.90;;;;;;5071762;28;20062;-65
2022/11/04 08:19:21;;;;;;;;;;;10.40;99.90;;;;;;5104245;28;20081;-67
2022/11/04 08:21:46;;;;;;;;;;;10.30;99.90;;;;;;5071711;28;20371;-67
2022/11/04 08:24:12;;;;;;;;;;;10.40;99.90;;;;;;5087516;28;20011;-67
2022/11/04 08:26:37;;;;;;;;;;;10.30;99.90;;;;;;5087178;28;20108;-67
2022/11/04 08:29:07;;;;;;;;;;;10.40;99.90;;;;;;5071637;28;19935;-66
2022/11/04 08:31:33;;;;;;;;;;;10.40;99.90;;;;;;5103908;28;19924;-67
2022/11/04 08:33:59;;;;;;;;;;;10.50;99.90;;;;;;5087794;28;19928;-68
2022/11/04 08:36:27;;;;;;;;;;;10.60;99.90;;;;;;5086632;28;19925;-67
2022/11/04 08:38:53;;;;;;;;;;;10.60;99.90;;;;;;5071964;28;20015;-66
2022/11/04 08:41:20;;;;;;;;;;;10.70;99.90;;;;;;5071103;28;19971;-66
2022/11/04 08:43:46;;;;;;;;;;;10.70;99.90;;;;;;5072033;28;19924;-66
2022/11/04 08:46:12;;;;;;;;;;;10.70;99.90;;;;;;5071928;28;19924;-66
2022/11/04 08:48:39;;;;;;;;;;;10.80;99.90;;;;;;5087445;28;19931;-66
2022/11/04 08:51:06;;;;;;;;;;;10.80;99.90;;;;;;5070960;28;19975;-66
2022/11/04 08:53:32;;;;;;;;;;;10.80;99.90;;;;;;5070602;28;19925;-68
2022/11/04 08:55:57;;;;;;;;;;;10.80;99.90;;;;;;5104745;28;20303;-66
2022/11/04 08:58:23;;;;;;;;;;;10.90;99.90;;;;;;5070743;28;19924;-68
2022/11/04 09:00:49;;;;;;;;;;;10.90;99.90;;;;;;5075282;28;19928;-66
2022/11/04 09:03:15;;;;;;;;;;;10.90;99.90;;;;;;5108775;28;19932;-66
2022/11/04 09:05:44;;;;;;;;;;;10.90;99.90;;;;;;5108238;28;19925;-66
2022/11/04 09:08:13;;;;;;;;;;;10.90;99.90;;;;;;5091677;28;20314;-67
2022/11/04 09:10:46;;;;;;;;;;;11.00;99.90;;;;;;5108188;28;19932;-66
2022/11/04 09:13:12;;;;;;;;;;;11.00;99.90;;;;;;5074840;28;20019;-66
2022/11/04 09:15:38;;;;;;;;;;;11.00;99.90;;;;;;5074249;28;20024;-67
2022/11/04 09:18:03;;;;;;;;;;;11.00;99.90;;;;;;5074709;28;19994;-66
2022/11/04 09:20:30;;;;;;;;;;;11.00;99.90;;;;;;5090855;28;19978;-67
2022/11/04 09:22:56;;;;;;;;;;;11.10;99.90;;;;;;5108447;28;19974;-66
2022/11/04 09:25:21;;;;;;;;;;;11.10;99.90;;;;;;5075403;28;19924;-66
2022/11/04 09:27:47;;;;;;;;;;;11.20;99.90;;;;;;5090716;28;19920;-66
2022/11/04 09:30:12;;;;;;;;;;;11.20;99.90;;;;;;5107862;28;20313;-66
2022/11/04 09:32:38;;;;;;;;;;;11.20;99.90;;;;;;5073322;28;20010;-67
2022/11/04 09:35:04;;;;;;;;;;;11.30;99.90;;;;;;5074467;28;19928;-67
2022/11/04 09:37:29;;;;;;;;;;;11.30;99.90;;;;;;5074777;28;20020;-69
2022/11/04 09:39:55;;;;;;;;;;;11.30;99.90;;;;;;5075458;28;19932;-68
2022/11/04 09:42:20;;;;;;;;;;;11.40;99.90;;;;;;5073934;28;19920;-68
2022/11/04 09:45:01;;;;;;;;;;;11.40;99.90;;;;;;5073342;28;19932;-68
2022/11/04 09:47:29;;;;;;;;;;;11.50;99.90;;;;;;5075114;28;19977;-68
2022/11/04 09:49:57;;;;;;;;;;;11.60;99.90;;;;;;5073562;28;19924;-68
2022/11/04 09:52:43;;;;;;;;;;;11.70;99.90;;;;;;5073700;28;19924;-66
2022/11/04 09:55:27;;;;;;;;;;;11.90;99.90;;;;;;5073753;28;20471;-68
2022/11/04 09:57:54;;;;;;;;;;;12.10;99.90;;;;;;5090308;28;20364;-68
2022/11/04 10:00:20;;;;;;;;;;;12.20;99.90;;;;;;5074895;28;19928;-68
2022/11/04 10:02:46;;;;;;;;;;;12.30;99.90;;;;;;5074391;28;20308;-67
2022/11/04 10:05:30;;;;;;;;;;;12.40;99.90;;;;;;5106711;28;19924;-68
2022/11/04 10:07:58;;;;;;;;;;;12.50;99.90;;;;;;5073035;28;19931;-67
2022/11/04 10:10:34;;;;;;;;;;;12.60;99.90;;;;;;5090109;28;20015;-67
2022/11/04 10:13:05;;;;;;;;;;;12.70;99.90;;;;;;5090612;28;20295;-68
2022/11/04 10:15:34;;;;;;;;;;;12.80;99.90;;;;;;5107483;28;19990;-67
2022/11/04 10:18:18;;;;;;;;;;;12.80;99.90;;;;;;5107090;28;19932;-66
2022/11/04 10:20:53;;;;;;;;;;;12.90;99.90;;;;;;5073846;28;19924;-66
2022/11/04 10:23:28;;;;;;;;;;;13.00;99.90;;;;;;5073104;28;19925;-66
2022/11/04 10:25:58;;;;;;;;;;;13.10;99.90;;;;;;5072601;28;19924;-66
2022/11/04 10:28:27;;;;;;;;;;;13.20;99.90;;;;;;5107166;28;19931;-66
2022/11/04 10:30:52;;;;;;;;;;;13.30;99.90;;;;;;5071945;28;19924;-66
2022/11/04 10:33:27;;;;;;;;;;;13.30;99.90;;;;;;5073050;28;20292;-65
2022/11/04 10:35:57;;;;;;;;;;;13.40;99.90;;;;;;5073832;28;20276;-65
2022/11/04 10:38:23;;;;;;;;;;;13.40;99.90;;;;;;5074143;28;19975;-64
2022/11/04 10:40:50;;;;;;;;;;;13.50;99.90;;;;;;5072497;28;20284;-67
2022/11/04 10:43:27;;;;;;;;;;;13.40;99.90;;;;;;5072988;28;19925;-65
2022/11/04 10:46:02;;;;;;;;;;;13.30;99.90;;;;;;5106123;28;20027;-65
2022/11/04 10:48:35;;;;;;;;;;;13.30;99.90;;;;;;5072850;28;19931;-65
2022/11/04 10:51:01;;;;;;;;;;;13.30;99.90;;;;;;5072561;28;19985;-67
2022/11/04 10:53:29;;;;;;;;;;;13.30;99.90;;;;;;5073940;28;19969;-66
2022/11/04 10:56:01;;;;;;;;;;;13.20;99.90;;;;;;5106249;28;19924;-66
2022/11/04 10:58:29;;;;;;;;;;;13.40;99.90;;;;;;5072712;28;19974;-66
2022/11/04 11:00:56;;;;;;;;;;;13.40;99.90;;;;;;5072138;28;19924;-65
2022/11/04 11:03:30;;;;;;;;;;;13.40;99.90;;;;;;5073569;28;19994;-63
2022/11/04 11:06:18;;;;;;;;;;;13.40;99.90;;;;;;5072096;28;19944;-65
2022/11/04 11:08:45;;;;;;;;;;;13.40;99.90;;;;;;5072016;28;19924;-65
2022/11/04 11:11:11;;;;;;;;;;;13.40;99.90;;;;;;5073247;28;20021;-64
2022/11/04 11:13:39;;;;;;;;;;;13.30;99.90;;;;;;5073246;28;19924;-64
2022/11/04 11:16:05;;;;;;;;;;;13.40;99.90;;;;;;5073006;28;20525;-65
2022/11/04 11:18:30;;;;;;;;;;;13.40;99.90;;;;;;5106075;28;19924;-64
2022/11/04 11:21:04;;;;;;;;;;;13.40;99.90;;;;;;5072747;28;20022;-65
2022/11/04 11:23:32;;;;;;;;;;;13.50;99.90;;;;;;5072219;28;20379;-67
2022/11/04 11:25:58;;;;;;;;;;;13.60;99.90;;;;;;5072698;28;20001;-68
2022/11/04 11:28:24;;;;;;;;;;;13.60;99.90;;;;;;5105720;28;19950;-68
2022/11/04 11:30:51;;;;;;;;;;;13.50;99.90;;;;;;5072276;28;19924;-67
2022/11/04 11:33:24;;;;;;;;;;;13.50;99.90;;;;;;5073006;28;20006;-67
2022/11/04 11:35:51;;;;;;;;;;;13.40;99.90;;;;;;5072505;28;19951;-67
2022/11/04 11:38:18;;;;;;;;;;;13.40;99.90;;;;;;5072066;28;19924;-67
2022/11/04 11:40:44;;;;;;;;;;;13.40;99.90;;;;;;5071898;28;19978;-67
2022/11/04 11:43:27;;;;;;;;;;;13.30;99.90;;;;;;5072448;28;19928;-67
2022/11/04 11:45:53;;;;;;;;;;;13.20;99.90;;;;;;5071773;28;20462;-67
2022/11/04 11:48:29;;;;;;;;;;;13.10;99.90;;;;;;5105376;28;19951;-66
2022/11/04 11:50:59;;;;;;;;;;;13.00;99.90;;;;;;5072323;28;19978;-66
2022/11/04 11:53:28;;;;;;;;;;;12.90;99.90;;;;;;5105349;28;19924;-67
2022/11/04 11:56:05;;;;;;;;;;;12.70;99.90;;;;;;5071918;28;19924;-67
2022/11/04 11:58:40;;;;;;;;;;;12.50;99.90;;;;;;5072353;28;19924;-66
2022/11/04 12:01:26;;;;;;;;;;;12.40;99.90;;;;;;5071967;28;19924;-66
2022/11/04 12:03:52;;;;;;;;;;;12.30;99.90;;;;;;5072498;28;19924;-67
2022/11/04 12:06:23;;;;;;;;;;;12.20;99.90;;;;;;5072362;28;19932;-66
2022/11/04 12:08:55;;;;;;;;;;;12.10;99.90;;;;;;5072636;28;20395;-67
2022/11/04 12:11:30;;;;;;;;;;;12.10;99.90;;;;;;5072142;28;19932;-66
2022/11/04 12:13:57;;;;;;;;;;;12.10;99.90;;;;;;5071206;28;19924;-66
2022/11/04 12:16:25;;;;;;;;;;;12.10;99.90;;;;;;5071458;28;19925;-66
2022/11/04 12:18:51;;;;;;;;;;;12.10;99.90;;;;;;5072426;28;19963;-67
2022/11/04 12:21:20;;;;;;;;;;;12.10;99.90;;;;;;5071416;28;19975;-68
2022/11/04 12:24:00;;;;;;;;;;;12.10;99.90;;;;;;5071349;28;19924;-68
2022/11/04 12:26:34;;;;;;;;;;;12.10;99.90;;;;;;5087804;28;20320;-66
2022/11/04 12:29:18;;;;;;;;;;;12.10;99.90;;;;;;5071034;28;19954;-67
2022/11/04 12:31:58;;;;;;;;;;;12.10;99.90;;;;;;5071460;28;20342;-66
2022/11/04 12:34:32;;;;;;;;;;;12.10;99.90;;;;;;5072092;28;20032;-65
2022/11/04 12:37:01;;;;;;;;;;;12.10;99.90;;;;;;5069998;28;19936;-65
2022/11/04 12:39:33;;;;;;;;;;;12.10;99.90;;;;;;5070749;28;20011;-65
2022/11/04 12:42:04;;;;;;;;;;;12.10;99.90;;;;;;5087453;28;19990;-66
2022/11/04 12:44:33;;;;;;;;;;;12.00;99.90;;;;;;5071979;28;20007;-66
2022/11/04 12:46:59;;;;;;;;;;;12.10;99.90;;;;;;5087633;28;19929;-66
2022/11/04 12:49:42;;;;;;;;;;;12.00;99.90;;;;;;5087433;28;19925;-67
2022/11/04 12:52:08;;;;;;;;;;;11.80;99.90;;;;;;5087238;28;19925;-67
2022/11/04 12:54:44;;;;;;;;;;;12.00;99.90;;;;;;5104393;28;19950;-66
2022/11/04 12:57:13;;;;;;;;;;;12.10;99.90;;;;;;5086947;28;19928;-66
2022/11/04 12:59:54;;;;;;;;;;;12.10;99.90;;;;;;5070383;28;19976;-65
2022/11/04 13:02:26;;;;;;;;;;;12.10;99.90;;;;;;5104185;28;19925;-66
2022/11/04 13:05:18;;;;;;;;;;;12.20;99.90;;;;;;5104200;28;19932;-64
2022/11/04 13:07:50;;;;;;;;;;;12.20;99.90;;;;;;5052501;28;19924;-66
2022/11/04 13:10:21;;;;;;;;;;;12.30;99.90;;;;;;5071402;28;20011;-65
2022/11/04 13:12:47;;;;;;;;;;;12.40;99.90;;;;;;5071816;28;20024;-66
2022/11/04 13:15:19;;;;;;;;;;;12.50;99.90;;;;;;5071579;28;20103;-66
2022/11/04 13:17:45;;;;;;;;;;;12.50;99.90;;;;;;5071032;28;19946;-67
2022/11/04 13:20:13;;;;;;;;;;;12.70;99.90;;;;;;5071489;28;19978;-66
2022/11/04 13:22:41;;;;;;;;;;;12.80;99.90;;;;;;5087584;28;20026;-66
2022/11/04 13:25:13;;;;;;;;;;;12.80;99.90;;;;;;5070632;28;20295;-65
2022/11/04 13:27:43;;;;;;;;;;;12.80;99.90;;;;;;5104701;28;19935;-67
2022/11/04 13:30:21;;;;;;;;;;;12.90;99.90;;;;;;5071852;28;19951;-68
2022/11/04 13:32:54;;;;;;;;;;;12.90;99.90;;;;;;5104664;28;19924;-66
2022/11/04 13:35:20;;;;;;;;;;;12.90;99.90;;;;;;5071447;28;19935;-67
2022/11/04 13:37:58;;;;;;;;;;;12.90;99.90;;;;;;5071479;28;20372;-65
2022/11/04 13:40:26;;;;;;;;;;;12.90;99.90;;;;;;5070197;28;19924;-65
2022/11/04 13:43:36;;;;;;;;;;;12.90;99.90;;;;;;5104545;28;19951;-65
2022/11/04 13:46:03;;;;;;;;;;;12.80;99.90;;;;;;5070789;28;19928;-65
2022/11/04 13:48:30;;;;;;;;;;;12.80;99.90;;;;;;5087662;28;19954;-65
2022/11/04 13:51:07;;;;;;;;;;;12.90;99.90;;;;;;5075145;28;19932;-66
2022/11/04 13:53:58;;;;;;;;;;;12.80;99.90;;;;;;5074340;28;20011;-66
2022/11/04 13:56:42;;;;;;;;;;;12.80;99.90;;;;;;5073285;28;20163;-65
2022/11/04 13:59:23;;;;;;;;;;;12.70;99.90;;;;;;5075271;28;19928;-66
2022/11/04 14:02:09;;;;;;;;;;;12.60;99.90;;;;;;5075065;28;19929;-66
2022/11/04 14:04:37;;;;;;;;;;;12.60;99.90;;;;;;5075356;28;19931;-67
2022/11/04 14:07:04;;;;;;;;;;;12.60;99.90;;;;;;5074542;28;19925;-65
2022/11/04 14:09:34;;;;;;;;;;;12.60;99.90;;;;;;5074610;28;19929;-66
2022/11/04 14:12:09;;;;;;;;;;;12.60;99.90;;;;;;5073889;28;19973;-66
2022/11/04 14:14:35;;;;;;;;;;;12.60;99.90;;;;;;5073961;28;19925;-66
2022/11/04 14:17:05;;;;;;;;;;;12.90;99.90;;;;;;5074751;28;19924;-65
2022/11/04 14:19:56;;;;;;;;;;;12.50;99.90;;;;;;5073443;28;19925;-65
2022/11/04 14:22:24;;;;;;;;;;;12.50;99.90;;;;;;5074481;28;19925;-66
2022/11/04 14:24:54;;;;;;;;;;;12.40;99.90;;;;;;5107647;28;20290;-66
2022/11/04 14:27:25;;;;;;;;;;;12.40;99.90;;;;;;5073926;28;20390;-66
2022/11/04 14:29:51;;;;;;;;;;;12.40;99.90;;;;;;5073713;28;19932;-66
2022/11/04 14:32:19;;;;;;;;;;;12.30;99.90;;;;;;5107195;28;20330;-67
2022/11/04 14:34:45;;;;;;;;;;;12.30;99.90;;;;;;5073355;28;19931;-66
2022/11/04 14:37:19;;;;;;;;;;;12.30;99.90;;;;;;5074063;28;20339;-65
2022/11/04 14:39:52;;;;;;;;;;;12.30;99.90;;;;;;5107379;28;19978;-65
2022/11/04 14:42:38;;;;;;;;;;;12.30;99.90;;;;;;5074183;28;20287;-66
2022/11/04 14:45:06;;;;;;;;;;;12.30;99.90;;;;;;5073027;28;20378;-66
2022/11/04 14:47:33;;;;;;;;;;;12.30;99.90;;;;;;5073811;28;20090;-66
2022/11/04 14:49:58;;;;;;;;;;;12.30;99.90;;;;;;5090117;28;19932;-67
2022/11/04 14:52:43;;;;;;;;;;;12.30;99.90;;;;;;5073977;28;19928;-67
2022/11/04 14:55:28;;;;;;;;;;;12.30;99.90;;;;;;5073205;28;19924;-66
2022/11/04 14:57:56;;;;;;;;;;;12.30;99.90;;;;;;5105747;28;19925;-66
2022/11/04 15:00:29;;;;;;;;;;;12.20;99.90;;;;;;5072365;28;19931;-64